Veyo, Utah
Current Conditions -  °F | °C
As of 11:55 AM on Monday 20 Oct 2014 (Local Time) from KSGU Reporting Station
Clear Clear  
Wind Chill: 72°   Ceiling: Unl
Heat Index: 72°   Visibility: 10mi
Dew Point: 39°   Wind: 7mph
Humidity: 31%   Direction: 330°NNW
Pressure: 30.03"   Gusts: NA
Location:  37.34°N, 113.69°W
Report Text: KSGU 201755Z AUTO 33006KT 10SM CLR 22/04 A3003 RMK AO1 10220 20130 57003
Loading
Personal Weather Stations






























Interactive Weather Map
Tropical Storm Tracking
New forecast layout! Learn more

10-Day Weather Forecast

Advertisements
Track Severe Weather on mobile